Time;durP1;ratioP1;P1;durP2;ratioP2;P2;SDS_P1;SDS_P2;PMS_P1;PMS_P2;Temp;Humidity;BMP_temperature;BMP_pressure;BME280_temperature;BME280_humidity;BME280_pressure;Samples;Min_cycle;Max_cycle;Signal;HPM_P1;HPM_P2
2022/04/21 00:00:18;;;;;;;5.30;2.80;;;;;;;9.85;57.90;100943.19;5011002;28;20637;-70
2022/04/21 00:02:45;;;;;;;5.05;3.00;;;;;;;10.11;57.50;100950.69;5011629;28;20096;-70
2022/04/21 00:05:13;;;;;;;7.88;3.00;;;;;;;9.99;57.64;100953.88;5011016;28;20037;-70
2022/04/21 00:07:40;;;;;;;4.32;2.58;;;;;;;10.08;57.60;100956.94;5011270;28;20050;-70
2022/04/21 00:10:08;;;;;;;6.07;3.22;;;;;;;10.01;57.65;100946.81;5010886;28;20053;-70
2022/04/21 00:12:35;;;;;;;4.47;2.78;;;;;;;9.98;57.73;100960.88;5011128;28;20053;-71
2022/04/21 00:15:01;;;;;;;7.75;3.17;;;;;;;9.92;58.05;100953.31;4987899;28;20112;-70
2022/04/21 00:17:28;;;;;;;5.97;3.03;;;;;;;10.05;57.99;100956.22;5010742;28;20058;-70
2022/04/21 00:19:54;;;;;;;4.10;2.90;;;;;;;9.80;58.67;100961.72;5010374;28;20049;-70
2022/04/21 00:25:08;;;;;;;6.32;2.88;;;;;;;9.89;57.76;100961.31;5005520;28;20057;-70
2022/04/21 00:27:37;;;;;;;7.47;2.78;;;;;;;9.92;57.68;100960.31;4995635;28;20487;-70
2022/04/21 00:30:06;;;;;;;5.25;2.85;;;;;;;9.83;58.30;100951.09;5003517;28;20037;-70
2022/04/21 00:32:33;;;;;;;4.35;2.50;;;;;;;9.74;58.34;100957.63;5009188;28;20052;-70
2022/04/21 00:34:59;;;;;;;5.25;3.03;;;;;;;9.69;59.01;100950.88;5004539;28;20050;-70
2022/04/21 00:37:26;;;;;;;5.47;2.83;;;;;;;9.66;58.85;100951.88;5002588;28;20049;-70
2022/04/21 00:39:53;;;;;;;5.82;2.85;;;;;;;9.79;58.58;100941.72;4988800;28;20531;-70
2022/04/21 00:42:19;;;;;;;7.00;3.00;;;;;;;9.86;58.65;100939.66;5008879;28;20041;-70
2022/04/21 00:44:46;;;;;;;4.80;2.88;;;;;;;10.06;58.08;100936.94;4993145;28;20109;-70
2022/04/21 00:47:13;;;;;;;7.25;3.45;;;;;;;9.91;58.12;100942.91;4991196;28;20129;-70
2022/04/21 00:49:40;;;;;;;5.57;2.85;;;;;;;9.63;58.52;100927.59;4990117;28;20060;-70
2022/04/21 00:52:08;;;;;;;4.38;2.75;;;;;;;9.81;58.27;100934.63;4995042;28;20054;-70
2022/04/21 00:54:36;;;;;;;5.25;2.90;;;;;;;9.58;59.30;100937.41;5006288;28;20070;-70
2022/04/21 00:57:04;;;;;;;5.38;2.90;;;;;;;9.71;59.24;100935.97;4991182;28;20499;-70
2022/04/21 00:59:31;;;;;;;7.30;3.30;;;;;;;9.72;59.50;100930.63;4996914;28;20046;-70
2022/04/21 01:04:42;;;;;;;6.60;2.85;;;;;;;9.69;59.38;100938.63;5009794;28;20096;-70
2022/04/21 01:07:09;;;;;;;5.47;2.50;;;;;;;9.63;59.39;100936.31;4992597;28;20046;-70
2022/04/21 01:09:37;;;;;;;5.53;2.85;;;;;;;9.66;59.49;100936.16;5009976;28;20490;-70
2022/04/21 01:12:08;;;;;;;5.50;2.92;;;;;;;9.67;59.70;100929.16;5000694;28;20443;-70
2022/04/21 01:14:37;;;;;;;8.02;3.17;;;;;;;9.76;59.53;100923.50;4997322;28;20046;-70
2022/04/21 01:17:04;;;;;;;7.05;2.80;;;;;;;9.82;59.49;100928.47;5001500;28;20046;-70
2022/04/21 01:19:30;;;;;;;5.78;2.63;;;;;;;10.00;59.36;100929.38;5008692;28;20065;-70
2022/04/21 01:21:58;;;;;;;6.38;3.17;;;;;;;9.89;59.40;100931.66;5009328;28;20067;-71
2022/04/21 01:24:24;;;;;;;5.10;2.60;;;;;;;9.75;59.88;100930.50;5003580;28;20073;-72
2022/04/21 01:26:51;;;;;;;4.20;2.53;;;;;;;9.63;60.56;100919.75;4990666;28;20050;-72
2022/04/21 01:29:18;;;;;;;5.72;2.67;;;;;;;9.61;59.83;100914.56;4992636;28;20097;-71
2022/04/21 01:31:44;;;;;;;5.95;2.55;;;;;;;9.68;59.96;100910.75;5009650;28;20077;-71
2022/04/21 01:34:10;;;;;;;6.50;2.88;;;;;;;9.70;59.80;100908.06;5010129;28;20135;-71
2022/04/21 01:41:08;;;;;;;8.85;3.20;;;;;;;9.69;59.61;100916.84;5010060;28;20395;-72
2022/04/21 01:42:14;;;;;;;6.40;2.83;;;;;;;9.87;59.41;100918.63;4986557;28;20065;-72
2022/04/21 01:44:40;;;;;;;5.57;2.60;;;;;;;9.79;59.65;100913.72;4988696;28;20042;-71
2022/04/21 01:47:07;;;;;;;5.05;2.88;;;;;;;9.80;59.92;100914.56;5010098;28;20050;-72
2022/04/21 01:49:33;;;;;;;8.00;3.20;;;;;;;10.04;59.58;100917.84;5000957;28;20073;-72
2022/04/21 01:51:59;;;;;;;7.55;3.58;;;;;;;9.88;59.64;100906.38;5005861;28;20113;-72
2022/04/21 01:54:27;;;;;;;6.65;3.10;;;;;;;10.06;59.55;100908.13;4996097;28;20490;-72
2022/04/21 01:56:54;;;;;;;10.98;3.65;;;;;;;9.98;59.49;100907.63;4991493;28;20054;-71
2022/04/21 01:59:20;;;;;;;5.30;2.80;;;;;;;10.02;60.30;100899.56;5002874;28;20487;-72
2022/04/21 02:01:46;;;;;;;6.22;3.05;;;;;;;9.86;59.96;100903.84;5011189;28;20116;-71
2022/04/21 02:04:13;;;;;;;8.05;3.20;;;;;;;9.86;59.89;100897.75;5011604;28;20042;-71
2022/04/21 02:06:39;;;;;;;5.75;3.10;;;;;;;9.69;60.57;100891.50;5012122;28;20054;-72
2022/04/21 02:09:05;;;;;;;6.47;2.97;;;;;;;9.95;60.36;100882.44;5030232;28;20060;-70
2022/04/21 02:11:34;;;;;;;8.07;3.38;;;;;;;9.68;61.44;100889.78;5026383;28;20030;-70
2022/04/21 02:14:00;;;;;;;6.13;2.85;;;;;;;9.56;61.30;100885.13;5013513;28;20054;-70
2022/04/21 02:16:26;;;;;;;4.88;2.67;;;;;;;9.73;61.17;100886.97;5001278;28;20718;-71
2022/04/21 02:18:53;;;;;;;11.00;3.33;;;;;;;9.81;60.55;100892.72;5000974;28;20050;-71
2022/04/21 02:21:19;;;;;;;7.60;3.20;;;;;;;9.96;60.00;100891.16;5007379;28;20092;-71
2022/04/21 02:23:45;;;;;;;10.52;3.08;;;;;;;9.77;60.65;100886.78;4990695;28;20418;-71
2022/04/21 02:26:12;;;;;;;8.60;3.38;;;;;;;9.67;60.22;100882.88;4996307;28;20049;-71
2022/04/21 02:28:40;;;;;;;5.65;3.08;;;;;;;9.67;60.94;100872.41;4999818;28;20415;-71
2022/04/21 02:31:06;;;;;;;8.30;3.35;;;;;;;9.90;60.35;100892.31;4997224;28;20050;-71
2022/04/21 02:33:32;;;;;;;7.28;3.03;;;;;;;9.99;60.28;100894.47;5005683;28;20042;-71
2022/04/21 02:35:59;;;;;;;6.25;3.08;;;;;;;9.84;60.38;100892.56;5007970;28;20053;-71
2022/04/21 02:38:25;;;;;;;5.18;2.80;;;;;;;9.82;61.34;100898.81;5006260;28;20138;-71
2022/04/21 02:40:51;;;;;;;7.65;3.38;;;;;;;9.97;60.38;100892.88;4994945;28;20120;-71
2022/04/21 02:43:18;;;;;;;6.25;3.35;;;;;;;9.53;61.10;100892.28;4999692;28;20046;-71
2022/04/21 02:45:46;;;;;;;6.25;2.97;;;;;;;9.78;61.23;100892.88;4999640;28;20050;-71
2022/04/21 02:48:12;;;;;;;9.00;3.88;;;;;;;9.92;60.82;100889.59;4991601;28;20047;-71
2022/04/21 02:50:40;;;;;;;5.43;2.80;;;;;;;9.67;60.43;100885.50;5004619;28;20049;-71
2022/04/21 02:53:07;;;;;;;7.47;3.15;;;;;;;9.66;60.80;100881.19;5007650;28;20046;-71
2022/04/21 02:58:20;;;;;;;8.93;3.47;;;;;;;9.60;61.29;100880.63;5007945;28;20048;-71
2022/04/21 03:00:48;;;;;;;5.47;3.40;;;;;;;9.43;61.91;100873.50;5005158;28;20612;-71
2022/04/21 03:03:14;;;;;;;5.78;2.90;;;;;;;9.56;61.46;100879.06;4988424;28;20085;-71
2022/04/21 03:05:42;;;;;;;6.25;2.58;;;;;;;9.50;61.24;100871.44;4998508;28;20050;-71
2022/04/21 03:08:08;;;;;;;7.40;3.20;;;;;;;9.51;61.32;100871.41;5003056;28;20132;-71
2022/04/21 03:10:34;;;;;;;8.15;3.13;;;;;;;9.35;61.51;100874.78;5005241;28;20050;-71
2022/04/21 03:13:01;;;;;;;8.10;3.20;;;;;;;9.30;62.34;100877.59;4999849;28;20047;-71
2022/04/21 03:15:27;;;;;;;7.57;2.95;;;;;;;9.38;61.85;100877.25;4998611;28;20139;-70
2022/04/21 03:17:55;;;;;;;9.90;3.35;;;;;;;9.25;62.66;100883.03;5017520;28;20076;-70
2022/04/21 03:25:50;;;;;;;8.00;3.45;;;;;;;9.16;62.90;100872.13;5023016;28;20053;-70
2022/04/21 03:28:16;;;;;;;6.10;2.97;;;;;;;9.15;63.44;100871.28;5011842;28;20089;-71
2022/04/21 03:30:42;;;;;;;7.55;3.15;;;;;;;9.03;64.03;100865.72;4998412;28;20100;-71
2022/04/21 03:33:10;;;;;;;8.55;3.15;;;;;;;9.23;63.61;100856.09;4990235;28;20046;-71
2022/04/21 03:35:37;;;;;;;9.35;3.33;;;;;;;9.20;63.59;100850.16;4993309;28;20047;-71
2022/04/21 03:38:03;;;;;;;8.60;3.35;;;;;;;9.55;62.43;100846.78;4999193;28;20120;-71
2022/04/21 03:40:30;;;;;;;5.43;3.22;;;;;;;9.63;62.28;100859.53;5006838;28;20077;-71
2022/04/21 03:42:56;;;;;;;11.30;3.60;;;;;;;9.33;62.44;100859.13;4996248;28;20038;-71
2022/04/21 03:45:22;;;;;;;12.38;3.95;;;;;;;9.36;62.98;100858.13;4988578;28;20073;-71
2022/04/21 03:47:49;;;;;;;10.02;3.50;;;;;;;9.61;62.12;100867.44;4997149;28;20100;-71
2022/04/21 03:50:16;;;;;;;8.05;3.17;;;;;;;9.72;61.96;100862.56;5007683;28;20050;-71
2022/04/21 03:52:43;;;;;;;6.22;3.10;;;;;;;9.65;61.80;100868.16;5008094;28;20058;-71
2022/04/21 03:55:11;;;;;;;6.30;3.10;;;;;;;9.65;61.96;100884.69;5001839;28;20391;-72
2022/04/21 03:57:37;;;;;;;5.60;3.10;;;;;;;9.75;61.99;100885.97;4988658;28;20047;-72
2022/04/21 04:00:05;;;;;;;7.85;3.22;;;;;;;9.57;62.58;100892.06;4989629;28;20486;-72
2022/04/21 04:02:31;;;;;;;8.32;3.38;;;;;;;9.57;62.54;100893.84;5007595;28;20042;-72
2022/04/21 04:05:00;;;;;;;8.18;3.22;;;;;;;9.64;62.63;100893.50;4989971;28;20038;-71
2022/04/21 04:12:56;;;;;;;7.88;3.28;;;;;;;9.45;62.69;100900.47;5005608;28;20107;-71
2022/04/21 04:15:22;;;;;;;10.23;4.35;;;;;;;9.57;62.72;100899.91;4994706;28;20549;-70
2022/04/21 04:17:48;;;;;;;9.43;3.35;;;;;;;9.51;62.82;100899.34;5007218;28;20418;-71
2022/04/21 04:20:15;;;;;;;7.32;3.55;;;;;;;9.36;63.33;100905.25;5002195;28;20656;-71
2022/04/21 04:22:43;;;;;;;9.50;3.53;;;;;;;9.59;62.89;100905.94;5002330;28;20050;-72
2022/04/21 04:25:10;;;;;;;6.90;3.42;;;;;;;9.39;63.89;100911.19;5010628;28;20077;-72
2022/04/21 04:27:37;;;;;;;9.85;4.05;;;;;;;9.45;63.58;100907.47;5009283;28;20042;-71
2022/04/21 04:30:04;;;;;;;9.52;3.58;;;;;;;9.32;64.34;100908.91;5010030;28;20050;-71
2022/04/21 04:32:30;;;;;;;6.35;3.30;;;;;;;9.51;63.83;100902.81;5010552;28;20580;-71
2022/04/21 04:34:57;;;;;;;8.48;4.00;;;;;;;9.42;64.22;100905.84;5010422;28;20050;-71
2022/04/21 04:37:23;;;;;;;8.32;3.22;;;;;;;9.50;64.65;100911.56;5010133;28;20056;-72
2022/04/21 04:39:52;;;;;;;11.65;3.72;;;;;;;9.04;66.27;100906.66;5009879;28;20092;-72
2022/04/21 04:42:17;;;;;;;8.52;3.88;;;;;;;8.95;66.92;100907.88;5002934;28;20108;-72
2022/04/21 04:44:44;;;;;;;11.80;3.50;;;;;;;9.05;66.73;100911.84;4997847;28;20046;-72
2022/04/21 04:47:09;;;;;;;8.63;3.40;;;;;;;9.09;66.89;100909.94;4994913;28;20391;-71
2022/04/21 04:49:35;;;;;;;10.88;3.85;;;;;;;9.23;66.52;100908.41;5009697;28;20049;-72
2022/04/21 04:52:02;;;;;;;12.43;4.00;;;;;;;9.37;65.67;100917.44;4991414;28;20047;-71
2022/04/21 04:54:29;;;;;;;11.65;4.18;;;;;;;9.52;65.65;100911.50;5002041;28;20469;-72
2022/04/21 04:56:57;;;;;;;11.77;4.10;;;;;;;9.43;66.26;100915.38;5009440;28;20617;-71
2022/04/21 04:59:23;;;;;;;8.50;3.72;;;;;;;9.40;65.93;100910.28;5008857;28;20406;-72
2022/04/21 05:01:50;;;;;;;8.95;3.70;;;;;;;9.51;65.89;100915.91;5008644;28;20046;-71
2022/04/21 05:04:18;;;;;;;6.65;3.58;;;;;;;9.46;65.97;100915.25;5009165;28;20482;-71
2022/04/21 05:06:46;;;;;;;9.10;4.50;;;;;;;9.20;66.37;100912.94;4998609;28;20719;-71
2022/04/21 05:09:14;;;;;;;10.68;3.88;;;;;;;9.49;65.93;100904.66;5003788;28;20038;-71
2022/04/21 05:11:41;;;;;;;6.63;3.28;;;;;;;9.31;67.12;100908.09;5007974;28;20050;-71
2022/04/21 05:14:10;;;;;;;10.63;3.92;;;;;;;9.38;66.77;100904.28;5005729;28;20115;-71
2022/04/21 05:16:39;;;;;;;10.13;4.25;;;;;;;9.36;66.35;100902.63;4986789;28;20057;-71
2022/04/21 05:19:07;;;;;;;13.60;4.18;;;;;;;9.55;65.45;100896.53;5008583;28;20057;-71
2022/04/21 05:21:34;;;;;;;6.93;3.75;;;;;;;9.65;65.80;100900.41;5007556;28;20049;-71
2022/04/21 05:24:02;;;;;;;9.70;3.78;;;;;;;9.64;65.77;100901.34;5008090;28;20064;-71
2022/04/21 05:26:29;;;;;;;10.23;4.25;;;;;;;9.59;65.54;100897.22;5008963;28;20506;-71
2022/04/21 05:28:57;;;;;;;8.32;3.75;;;;;;;9.47;65.67;100895.16;5025217;28;20057;-71
2022/04/21 05:31:26;;;;;;;7.75;3.55;;;;;;;9.59;66.05;100907.69;5028214;28;20065;-71
2022/04/21 05:33:54;;;;;;;9.52;4.13;;;;;;;9.74;65.60;100913.09;5027365;28;20512;-71
2022/04/21 05:36:21;;;;;;;12.70;4.70;;;;;;;9.65;65.46;100912.66;4991716;28;20104;-71
2022/04/21 05:38:49;;;;;;;9.90;3.90;;;;;;;9.51;66.12;100918.50;5006081;28;20096;-71
2022/04/21 05:41:17;;;;;;;7.97;4.22;;;;;;;9.62;66.20;100929.34;5022922;28;20470;-71
2022/04/21 05:43:45;;;;;;;12.10;5.00;;;;;;;9.75;66.23;100914.78;5016048;28;20051;-71
2022/04/21 05:46:13;;;;;;;10.55;4.05;;;;;;;9.82;65.90;100922.38;5001143;28;20105;-71
2022/04/21 05:48:42;;;;;;;13.40;3.90;;;;;;;9.78;66.15;100919.06;4971827;28;20059;-71
2022/04/21 05:51:10;;;;;;;15.00;4.57;;;;;;;9.52;66.60;100919.38;4987963;28;20042;-71
2022/04/21 05:53:38;;;;;;;8.77;4.25;;;;;;;9.49;67.03;100925.59;4995337;28;20133;-71
2022/04/21 05:56:06;;;;;;;7.97;4.22;;;;;;;9.41;68.38;100925.09;4988767;28;20050;-71
2022/04/21 05:58:33;;;;;;;9.27;3.80;;;;;;;9.46;67.85;100923.09;4988841;28;20046;-71
2022/04/21 06:01:01;;;;;;;9.27;4.43;;;;;;;9.53;68.99;100924.53;4987535;28;20046;-71
2022/04/21 06:03:28;;;;;;;9.77;4.07;;;;;;;9.49;69.17;100922.97;4988952;28;20042;-71
2022/04/21 06:05:56;;;;;;;9.38;4.50;;;;;;;9.90;67.96;100935.97;4986754;28;20439;-71
2022/04/21 06:08:22;;;;;;;10.23;4.55;;;;;;;9.98;68.56;100933.84;4992394;28;20042;-71
2022/04/21 06:10:48;;;;;;;12.85;4.93;;;;;;;9.83;69.29;100924.91;4986778;28;20054;-72
2022/04/21 06:13:15;;;;;;;11.88;5.00;;;;;;;10.16;68.20;100938.28;4988551;28;20455;-72
2022/04/21 06:15:42;;;;;;;8.80;4.22;;;;;;;10.29;67.52;100933.28;4989099;28;20058;-72
2022/04/21 06:18:08;;;;;;;8.48;3.92;;;;;;;10.11;68.26;100929.75;4992765;28;20490;-72
2022/04/21 06:20:35;;;;;;;11.23;4.50;;;;;;;10.21;68.25;100925.78;5005818;28;20124;-72
2022/04/21 06:23:03;;;;;;;9.88;4.28;;;;;;;10.14;68.25;100924.34;5006673;28;20130;-73
2022/04/21 06:25:29;;;;;;;8.30;4.43;;;;;;;10.20;68.48;100916.22;5008484;28;20613;-73
2022/04/21 06:27:55;;;;;;;10.52;4.90;;;;;;;10.19;69.89;100925.88;5007482;28;20053;-73
2022/04/21 06:30:23;;;;;;;9.07;4.78;;;;;;;10.12;69.37;100927.06;4987940;28;20093;-73
2022/04/21 06:32:49;;;;;;;8.48;4.18;;;;;;;10.16;69.06;100920.75;4997973;28;20062;-73
2022/04/21 06:35:16;;;;;;;15.75;5.00;;;;;;;10.19;69.76;100932.88;5007420;28;20045;-73
2022/04/21 06:37:42;;;;;;;12.93;4.85;;;;;;;10.32;69.86;100922.66;4997919;28;20042;-73
2022/04/21 06:40:10;;;;;;;9.23;4.55;;;;;;;10.49;69.65;100920.94;5004367;28;20441;-73
2022/04/21 06:42:41;;;;;;;10.55;4.70;;;;;;;10.64;69.33;100925.41;5010610;28;20038;-73
2022/04/21 06:48:04;;;;;;;13.15;4.68;;;;;;;10.73;67.74;100922.38;5004427;28;20092;-73
2022/04/21 06:50:35;;;;;;;10.38;4.53;;;;;;;10.76;68.14;100923.97;5006917;28;20049;-74
2022/04/21 06:53:03;;;;;;;8.68;4.35;;;;;;;11.03;68.05;100917.34;5006875;28;20054;-74
2022/04/21 06:55:31;;;;;;;11.13;4.57;;;;;;;11.02;66.95;100915.66;5007069;28;20465;-74
2022/04/21 06:57:58;;;;;;;13.15;4.93;;;;;;;11.04;67.95;100923.47;5007519;28;20041;-73
2022/04/21 07:00:26;;;;;;;10.13;4.72;;;;;;;11.06;67.05;100921.59;5006998;28;20046;-74
2022/04/21 07:02:54;;;;;;;10.00;4.82;;;;;;;11.09;67.86;100919.66;5006532;28;20422;-74
2022/04/21 07:05:22;;;;;;;8.77;4.68;;;;;;;11.24;66.44;100925.91;5007788;28;20524;-74
2022/04/21 07:07:49;;;;;;;9.43;4.68;;;;;;;11.35;67.07;100915.69;5007884;28;20631;-74
2022/04/21 07:10:15;;;;;;;7.47;4.35;;;;;;;11.27;66.40;100915.25;5004947;28;20084;-74
2022/04/21 07:12:43;;;;;;;9.65;4.50;;;;;;;11.47;66.09;100911.59;5008094;28;20123;-74
2022/04/21 07:15:13;;;;;;;9.80;4.40;;;;;;;11.68;65.76;100916.53;5007186;28;20046;-74
2022/04/21 07:17:40;;;;;;;9.80;4.53;;;;;;;11.77;64.54;100919.66;4988659;28;20778;-74
2022/04/21 07:20:08;;;;;;;12.25;4.63;;;;;;;11.81;65.82;100926.44;4988347;28;20046;-74
2022/04/21 07:22:35;;;;;;;9.50;4.80;;;;;;;11.69;65.84;100920.88;4989082;28;20112;-74
2022/04/21 07:25:03;;;;;;;10.48;4.13;;;;;;;11.53;65.40;100922.59;4988452;28;20054;-74
2022/04/21 07:27:30;;;;;;;8.18;4.60;;;;;;;11.62;65.25;100914.25;4991995;28;20042;-74
2022/04/21 07:29:58;;;;;;;12.38;4.85;;;;;;;11.64;64.58;100917.63;4997566;28;20072;-73
2022/04/21 07:32:24;;;;;;;11.93;4.70;;;;;;;11.79;65.24;100920.44;4993472;28;20046;-74
2022/04/21 07:34:50;;;;;;;11.82;4.90;;;;;;;11.57;65.16;100924.16;5002796;28;20050;-74
2022/04/21 07:37:17;;;;;;;11.77;4.90;;;;;;;11.62;65.75;100930.00;4996252;28;20538;-74
2022/04/21 07:39:43;;;;;;;7.85;4.53;;;;;;;11.89;64.71;100930.38;5003294;28;20120;-73
2022/04/21 07:42:10;;;;;;;13.27;5.10;;;;;;;12.04;64.56;100923.41;5011399;28;20123;-73
2022/04/21 07:44:37;;;;;;;9.55;4.72;;;;;;;11.95;63.79;100923.91;5006001;28;20418;-73
2022/04/21 07:47:06;;;;;;;11.55;4.65;;;;;;;11.88;64.23;100931.28;5010132;28;20045;-70
2022/04/21 07:49:46;;;;;;;9.75;5.47;;;;;;;12.07;63.96;100929.34;5009837;28;20058;-69
2022/04/21 07:54:56;;;;;;;11.68;4.43;;;;;;;11.85;63.71;100927.97;5010475;28;20119;-69
2022/04/21 07:57:23;;;;;;;12.90;4.78;;;;;;;11.96;63.47;100929.09;5009327;28;20465;-69
2022/04/21 07:59:49;;;;;;;10.43;4.97;;;;;;;12.14;62.67;100932.50;5008790;28;20103;-69
2022/04/21 08:02:17;;;;;;;11.35;4.82;;;;;;;12.08;63.19;100940.72;5009789;28;20120;-69
2022/04/21 08:04:43;;;;;;;16.17;5.55;;;;;;;11.81;62.96;100939.56;5006994;28;20058;-69
2022/04/21 08:07:10;;;;;;;13.68;4.95;;;;;;;12.06;63.43;100945.19;5004838;28;20050;-69
2022/04/21 08:09:36;;;;;;;12.07;5.15;;;;;;;12.08;63.42;100946.81;5005185;28;20050;-69
2022/04/21 08:12:02;;;;;;;11.20;4.97;;;;;;;11.95;62.99;100944.94;5004369;28;20077;-69
2022/04/21 08:14:29;;;;;;;10.50;5.05;;;;;;;12.11;63.53;100953.69;4998178;28;20038;-69
2022/04/21 08:16:55;;;;;;;9.93;4.63;;;;;;;12.08;62.75;100952.06;4992354;28;20105;-69
2022/04/21 08:19:23;;;;;;;9.10;4.32;;;;;;;12.02;62.73;100947.16;4989772;28;20057;-69
2022/04/21 08:21:49;;;;;;;11.02;4.63;;;;;;;12.06;63.37;100943.41;4988933;28;20120;-69
2022/04/21 08:32:41;;;;;;;11.02;5.13;;;;;;;11.82;63.33;100943.91;5005202;28;20806;-68
2022/04/21 08:35:13;;;;;;;11.10;4.50;;;;;;;11.60;63.69;100950.25;5007280;28;20046;-68
2022/04/21 08:37:39;;;;;;;8.35;4.90;;;;;;;11.51;64.05;100945.50;4996452;28;20050;-69
2022/04/21 08:40:08;;;;;;;11.05;4.93;;;;;;;11.50;64.06;100940.31;4993928;28;20188;-68
2022/04/21 08:42:37;;;;;;;15.18;5.13;;;;;;;11.88;64.88;100936.53;5009994;28;20503;-68
2022/04/21 08:45:04;;;;;;;8.23;4.38;;;;;;;12.00;64.36;100948.16;5009457;28;20050;-68
2022/04/21 08:47:31;;;;;;;11.85;4.90;;;;;;;12.09;63.53;100940.63;5007569;28;20096;-68
2022/04/21 08:50:04;;;;;;;10.23;5.07;;;;;;;12.34;63.23;100942.72;5027151;28;20386;-68
2022/04/21 08:52:33;;;;;;;9.00;5.03;;;;;;;12.08;63.83;100946.81;5022630;28;20506;-69
2022/04/21 08:54:59;;;;;;;13.00;4.88;;;;;;;12.08;62.57;100944.16;5004574;28;20606;-69
2022/04/21 08:57:26;;;;;;;15.85;5.65;;;;;;;12.49;62.87;100941.88;5025722;28;20124;-69
2022/04/21 08:59:53;;;;;;;11.30;5.20;;;;;;;12.51;63.49;100949.69;5028178;28;20471;-69
2022/04/21 09:02:19;;;;;;;11.32;4.65;;;;;;;12.41;62.10;100943.25;5010990;28;20050;-69
2022/04/21 09:04:45;;;;;;;7.22;3.80;;;;;;;12.45;62.86;100953.50;4990002;28;20046;-69
2022/04/21 09:07:17;;;;;;;9.45;4.60;;;;;;;12.67;63.04;100951.34;5001956;28;20074;-69
2022/04/21 09:12:41;;;;;;;7.95;4.47;;;;;;;12.64;61.87;100953.31;5133516;27;20194;-68
2022/04/21 09:15:09;;;;;;;8.65;5.13;;;;;;;12.65;62.02;100947.97;5117055;27;20044;-70
2022/04/21 09:17:40;;;;;;;12.80;5.85;;;;;;;12.85;61.86;100951.25;5119211;27;20104;-70
2022/04/21 09:20:08;;;;;;;8.65;4.60;;;;;;;12.97;61.62;100948.75;5124233;27;20524;-69
2022/04/21 09:22:35;;;;;;;8.57;4.50;;;;;;;13.22;61.08;100947.38;5119814;27;20102;-69
2022/04/21 09:25:02;;;;;;;8.25;4.78;;;;;;;13.24;61.58;100946.31;5104891;28;20488;-69
2022/04/21 09:27:40;;;;;;;12.05;5.25;;;;;;;12.95;60.92;100948.00;5095341;28;20047;-70
2022/04/21 09:30:10;;;;;;;8.05;4.47;;;;;;;13.35;60.32;100940.41;5090533;28;20101;-70
2022/04/21 09:32:37;;;;;;;16.02;5.45;;;;;;;13.67;60.91;100943.75;5100737;28;20122;-69
2022/04/21 09:35:04;;;;;;;10.15;4.65;;;;;;;13.68;61.13;100942.78;5094637;28;20072;-69
2022/04/21 09:37:31;;;;;;;8.50;5.00;;;;;;;13.40;59.49;100944.47;5077168;27;20771;-69
2022/04/21 09:39:57;;;;;;;7.20;4.45;;;;;;;13.49;59.95;100940.44;5123694;27;20047;-69
2022/04/21 09:42:25;;;;;;;6.97;4.35;;;;;;;13.30;61.22;100935.44;5124733;27;20047;-69
2022/04/21 09:47:37;;;;;;;11.60;4.30;;;;;;;13.75;59.96;100936.19;5108254;27;20050;-69
2022/04/21 09:50:14;;;;;;;9.70;4.93;;;;;;;13.84;60.30;100933.00;5113317;27;20050;-69
2022/04/21 09:52:47;;;;;;;7.32;4.65;;;;;;;13.82;59.87;100940.19;5112519;27;20052;-69
2022/04/21 09:55:25;;;;;;;14.18;5.53;;;;;;;13.84;60.19;100939.13;5087947;28;20218;-69
2022/04/21 09:57:53;;;;;;;10.52;5.25;;;;;;;13.93;59.04;100937.72;5103355;28;20492;-69
2022/04/21 10:00:22;;;;;;;11.15;5.20;;;;;;;14.17;57.93;100945.88;5092033;27;20089;-69
2022/04/21 10:02:50;;;;;;;11.60;4.82;;;;;;;14.10;59.29;100942.78;5103354;27;20066;-69
2022/04/21 10:05:17;;;;;;;10.63;4.40;;;;;;;13.97;59.35;100942.69;5091299;27;20047;-69
2022/04/21 10:07:45;;;;;;;8.20;4.50;;;;;;;14.18;59.28;100939.66;5102978;27;20484;-69
2022/04/21 10:10:12;;;;;;;8.07;4.55;;;;;;;13.63;59.83;100933.38;5121737;27;20743;-69
2022/04/21 10:12:39;;;;;;;11.05;4.45;;;;;;;14.08;59.68;100934.09;5107476;27;20104;-69
2022/04/21 10:15:08;;;;;;;9.80;4.53;;;;;;;13.99;58.22;100932.06;5117642;27;20048;-69
2022/04/21 10:17:36;;;;;;;10.95;4.72;;;;;;;14.06;58.67;100930.72;5102025;28;20036;-69
2022/04/21 10:20:02;;;;;;;10.32;5.10;;;;;;;13.91;59.57;100934.31;5101710;28;20046;-69
2022/04/21 10:22:33;;;;;;;7.85;4.20;;;;;;;14.10;58.29;100934.88;5094733;28;20059;-69
2022/04/21 10:24:59;;;;;;;10.48;4.90;;;;;;;14.32;58.86;100935.19;5057426;28;20095;-69
2022/04/21 10:27:40;;;;;;;8.15;4.80;;;;;;;14.53;57.46;100940.91;5084241;28;20113;-69
2022/04/21 10:30:19;;;;;;;10.77;4.47;;;;;;;14.57;57.92;100927.41;5082021;28;20051;-69
2022/04/21 10:32:51;;;;;;;10.73;5.40;;;;;;;14.55;56.85;100928.47;5102587;27;20075;-67
2022/04/21 10:35:20;;;;;;;12.95;4.97;;;;;;;14.71;58.21;100917.75;5092495;27;20207;-66
2022/04/21 10:37:47;;;;;;;8.40;4.78;;;;;;;14.65;57.22;100921.63;5089970;28;20062;-67
2022/04/21 10:40:15;;;;;;;13.98;5.03;;;;;;;14.73;57.82;100915.84;5085167;28;20071;-67
2022/04/21 10:42:59;;;;;;;10.38;4.45;;;;;;;14.77;56.96;100917.34;5090803;28;20543;-67
2022/04/21 10:45:27;;;;;;;10.93;4.45;;;;;;;14.86;56.98;100917.56;5100395;27;20484;-67
2022/04/21 10:48:06;;;;;;;10.30;4.28;;;;;;;14.94;56.44;100919.69;5056218;28;20079;-67
2022/04/21 10:50:34;;;;;;;9.38;4.78;;;;;;;15.03;57.62;100925.22;5080689;28;20048;-66
2022/04/21 10:58:52;;;;;;;9.35;4.68;;;;;;;15.17;56.53;100912.88;5074217;28;20079;-66
2022/04/21 11:01:33;;;;;;;7.60;4.55;;;;;;;15.09;57.40;100911.59;5070009;28;20053;-66
2022/04/21 11:04:19;;;;;;;6.55;4.30;;;;;;;15.03;57.66;100912.03;5065520;28;20048;-66
2022/04/21 11:06:47;;;;;;;10.25;4.38;;;;;;;15.06;57.33;100913.59;5066273;28;20041;-66
2022/04/21 11:09:39;;;;;;;9.05;4.55;;;;;;;14.86;58.32;100911.44;5085644;28;20515;-66
2022/04/21 11:12:07;;;;;;;8.88;4.35;;;;;;;14.93;57.22;100905.66;5069109;28;20041;-66
2022/04/21 11:14:36;;;;;;;14.85;5.13;;;;;;;15.06;57.66;100903.03;5068621;28;20055;-66
2022/04/21 11:17:04;;;;;;;9.75;4.95;;;;;;;15.25;57.02;100908.78;5069119;28;20044;-66
2022/04/21 11:19:37;;;;;;;11.65;5.38;;;;;;;15.31;57.47;100912.78;5068820;28;20486;-66
2022/04/21 11:22:05;;;;;;;9.95;5.13;;;;;;;15.01;58.10;100910.41;5071360;28;20044;-66
2022/04/21 11:25:04;;;;;;;9.27;3.70;;;;;;;14.78;57.13;100909.31;5086259;28;20495;-67
2022/04/21 11:27:34;;;;;;;8.63;4.50;;;;;;;14.44;58.06;100915.13;5048806;28;20128;-67
2022/04/21 11:30:02;;;;;;;7.22;4.05;;;;;;;14.44;57.91;100913.34;5048689;28;20052;-67
2022/04/21 11:32:29;;;;;;;11.13;4.47;;;;;;;14.57;58.20;100901.03;5049278;28;20049;-67
2022/04/21 11:35:00;;;;;;;7.25;4.25;;;;;;;14.80;58.45;100901.31;5056783;28;20060;-67
2022/04/21 11:37:44;;;;;;;12.15;4.32;;;;;;;14.52;59.10;100897.84;5069465;28;20118;-67
2022/04/21 11:40:19;;;;;;;9.15;4.45;;;;;;;14.25;59.55;100896.97;5072678;28;20044;-67
2022/04/21 11:42:45;;;;;;;7.90;4.15;;;;;;;14.48;59.03;100898.16;5085984;28;20036;-67
2022/04/21 11:45:12;;;;;;;9.82;4.53;;;;;;;14.60;59.10;100892.91;5086038;28;20048;-67
2022/04/21 11:47:39;;;;;;;11.35;4.13;;;;;;;14.44;59.25;100896.66;5088812;28;20043;-67
2022/04/21 11:50:07;;;;;;;13.07;4.55;;;;;;;14.63;58.20;100895.34;5088829;28;20044;-66
2022/04/21 11:52:33;;;;;;;7.20;4.47;;;;;;;14.27;58.88;100892.44;5089200;28;20101;-66
2022/04/21 11:55:00;;;;;;;9.18;4.35;;;;;;;14.18;60.72;100900.09;5088916;28;20469;-67
2022/04/21 11:57:39;;;;;;;10.02;4.65;;;;;;;14.46;59.36;100902.66;5088624;28;20051;-66
2022/04/21 12:00:08;;;;;;;9.18;4.70;;;;;;;14.35;59.32;100889.31;5088375;28;20097;-66
2022/04/21 12:08:05;;;;;;;7.63;4.32;;;;;;;14.30;59.39;100896.69;5063395;28;20064;-66
2022/04/21 12:10:32;;;;;;;14.20;5.07;;;;;;;14.26;60.49;100900.47;5067198;28;20049;-66
2022/04/21 12:12:58;;;;;;;12.65;5.20;;;;;;;14.38;59.61;100903.16;5070243;28;20044;-66
2022/04/21 12:15:27;;;;;;;9.05;5.38;;;;;;;14.33;59.25;100899.97;5087266;28;20420;-66
2022/04/21 12:17:59;;;;;;;8.95;4.72;;;;;;;14.31;60.08;100899.19;5069793;28;20644;-66
2022/04/21 12:20:26;;;;;;;11.45;4.65;;;;;;;14.24;60.84;100897.06;5079401;28;20415;-66
2022/04/21 12:22:53;;;;;;;9.95;5.00;;;;;;;14.18;60.09;100903.59;5083432;28;20044;-66